Time;durP1;ratioP1;P1;durP2;ratioP2;P2;SDS_P1;SDS_P2;PMS_P1;PMS_P2;Temp;Humidity;BMP_temperature;BMP_pressure;BME280_temperature;BME280_humidity;BME280_pressure;Samples;Min_cycle;Max_cycle;Signal;HPM_P1;HPM_P2
2022/05/06 00:00:07;;;;;;;;;;;22.20;43.90;;;;;;457906;260;1137;-40
2022/05/06 00:02:08;;;;;;;;;;;22.20;43.90;;;;;;457570;260;1274;-40
2022/05/06 00:04:10;;;;;;;;;;;22.20;43.90;;;;;;457640;260;2127;-40
2022/05/06 00:06:13;;;;;;;;;;;22.20;43.80;;;;;;457537;251;1576;-40
2022/05/06 00:08:13;;;;;;;;;;;22.20;43.80;;;;;;457484;261;2445;-40
2022/05/06 00:10:14;;;;;;;;;;;22.20;43.80;;;;;;457555;261;2298;-40
2022/05/06 00:12:18;;;;;;;;;;;22.20;43.80;;;;;;457738;260;1315;-40
2022/05/06 00:14:16;;;;;;;;;;;22.20;43.80;;;;;;457522;260;2077;-40
2022/05/06 00:16:18;;;;;;;;;;;22.20;43.90;;;;;;457539;257;1149;-40
2022/05/06 00:18:20;;;;;;;;;;;22.20;43.90;;;;;;457637;260;1232;-40
2022/05/06 00:20:20;;;;;;;;;;;22.20;43.80;;;;;;457519;261;2080;-40
2022/05/06 00:22:22;;;;;;;;;;;22.20;43.90;;;;;;457662;260;1084;-40
2022/05/06 00:24:23;;;;;;;;;;;22.20;43.90;;;;;;457545;261;1064;-40
2022/05/06 00:26:25;;;;;;;;;;;22.20;43.80;;;;;;457591;260;1724;-40
2022/05/06 00:28:26;;;;;;;;;;;22.20;43.80;;;;;;457832;260;1063;-40
2022/05/06 00:30:27;;;;;;;;;;;22.20;43.80;;;;;;457580;261;1081;-40
2022/05/06 00:32:28;;;;;;;;;;;22.20;43.90;;;;;;457500;260;1352;-40
2022/05/06 00:34:30;;;;;;;;;;;22.20;43.90;;;;;;457620;260;1147;-40
2022/05/06 00:36:31;;;;;;;;;;;22.20;43.90;;;;;;457619;260;1173;-40
2022/05/06 00:38:32;;;;;;;;;;;22.10;43.90;;;;;;457879;260;1414;-40
2022/05/06 00:40:34;;;;;;;;;;;22.20;44.00;;;;;;457908;260;1184;-40
2022/05/06 00:42:35;;;;;;;;;;;22.10;43.90;;;;;;457808;260;2136;-40
2022/05/06 00:44:37;;;;;;;;;;;22.20;44.00;;;;;;457887;260;1074;-40
2022/05/06 00:46:38;;;;;;;;;;;22.20;43.90;;;;;;457575;252;1194;-40
2022/05/06 00:48:39;;;;;;;;;;;22.20;44.00;;;;;;457625;261;1236;-40
2022/05/06 00:50:41;;;;;;;;;;;22.10;43.90;;;;;;457606;261;1121;-40
2022/05/06 00:52:42;;;;;;;;;;;22.20;43.90;;;;;;457529;261;1248;-40
2022/05/06 00:54:43;;;;;;;;;;;22.20;43.90;;;;;;457628;260;1126;-40
2022/05/06 00:56:46;;;;;;;;;;;22.20;43.90;;;;;;457767;260;1402;-40
2022/05/06 00:58:46;;;;;;;;;;;22.20;43.80;;;;;;457631;260;1536;-40
2022/05/06 01:00:47;;;;;;;;;;;22.20;43.90;;;;;;457794;260;1238;-40
2022/05/06 01:02:49;;;;;;;;;;;22.20;43.90;;;;;;457534;261;2211;-40
2022/05/06 01:04:50;;;;;;;;;;;22.20;43.90;;;;;;457745;260;1068;-40
2022/05/06 01:06:51;;;;;;;;;;;22.10;43.90;;;;;;457562;261;1502;-40
2022/05/06 01:08:53;;;;;;;;;;;22.20;43.90;;;;;;457790;260;1119;-40
2022/05/06 01:10:54;;;;;;;;;;;22.10;43.90;;;;;;457756;260;1204;-40
2022/05/06 01:12:55;;;;;;;;;;;22.20;43.90;;;;;;457603;261;1091;-40
2022/05/06 01:14:56;;;;;;;;;;;22.20;43.80;;;;;;457790;260;1126;-40
2022/05/06 01:16:58;;;;;;;;;;;22.20;43.80;;;;;;457913;260;1120;-40
2022/05/06 01:18:59;;;;;;;;;;;22.20;43.80;;;;;;457642;260;1239;-39
2022/05/06 01:21:01;;;;;;;;;;;22.20;43.80;;;;;;457547;261;1772;-40
2022/05/06 01:23:04;;;;;;;;;;;22.20;43.90;;;;;;457517;261;2131;-40
2022/05/06 01:25:03;;;;;;;;;;;22.20;44.00;;;;;;457724;260;2098;-40
2022/05/06 01:27:05;;;;;;;;;;;22.20;43.90;;;;;;457698;260;1466;-40
2022/05/06 01:29:06;;;;;;;;;;;22.10;43.90;;;;;;457814;260;1077;-40
2022/05/06 01:31:07;;;;;;;;;;;22.20;43.90;;;;;;457811;260;1304;-40
2022/05/06 01:33:09;;;;;;;;;;;22.10;43.90;;;;;;457842;260;1324;-40
2022/05/06 01:35:10;;;;;;;;;;;22.20;43.90;;;;;;457638;260;1071;-40
2022/05/06 01:37:12;;;;;;;;;;;22.20;43.90;;;;;;457647;260;1725;-40
2022/05/06 01:39:15;;;;;;;;;;;22.20;43.90;;;;;;457586;261;1361;-40
2022/05/06 01:41:15;;;;;;;;;;;22.20;43.90;;;;;;457768;260;2142;-40
2022/05/06 01:43:16;;;;;;;;;;;22.20;43.90;;;;;;457705;260;2183;-40
2022/05/06 01:45:17;;;;;;;;;;;22.20;44.00;;;;;;457996;260;1104;-40
2022/05/06 01:47:19;;;;;;;;;;;22.20;43.90;;;;;;457584;260;1347;-40
2022/05/06 01:49:20;;;;;;;;;;;22.20;43.90;;;;;;457690;260;1231;-40
2022/05/06 01:51:22;;;;;;;;;;;22.20;43.90;;;;;;457459;252;1256;-40
2022/05/06 01:53:24;;;;;;;;;;;22.20;43.90;;;;;;457789;260;1191;-40
2022/05/06 01:55:24;;;;;;;;;;;22.10;43.90;;;;;;457489;261;2191;-40
2022/05/06 01:57:26;;;;;;;;;;;22.20;43.90;;;;;;457511;261;1302;-40
2022/05/06 01:59:27;;;;;;;;;;;22.20;43.90;;;;;;457626;260;1198;-40
2022/05/06 02:01:29;;;;;;;;;;;22.10;43.90;;;;;;457746;260;1290;-40
2022/05/06 02:05:49;;;;;;;;;;;22.20;43.90;;;;;;457575;261;1083;-40
2022/05/06 02:07:50;;;;;;;;;;;22.20;43.90;;;;;;457576;261;1177;-40
2022/05/06 02:09:51;;;;;;;;;;;22.20;43.80;;;;;;457998;260;1091;-40
2022/05/06 02:11:53;;;;;;;;;;;22.20;43.70;;;;;;457840;259;1465;-40
2022/05/06 02:13:56;;;;;;;;;;;22.20;43.90;;;;;;458077;260;1197;-39
2022/05/06 02:15:57;;;;;;;;;;;22.20;43.90;;;;;;457623;260;1380;-40
2022/05/06 02:17:57;;;;;;;;;;;22.20;43.90;;;;;;457672;260;2410;-40
2022/05/06 02:19:59;;;;;;;;;;;22.20;43.90;;;;;;457693;261;1200;-40
2022/05/06 02:22:00;;;;;;;;;;;22.20;43.90;;;;;;457810;260;1362;-40
2022/05/06 02:24:01;;;;;;;;;;;22.20;43.90;;;;;;458020;260;2209;-40
2022/05/06 02:26:02;;;;;;;;;;;22.20;43.90;;;;;;457630;261;1395;-40
2022/05/06 02:28:04;;;;;;;;;;;22.20;43.90;;;;;;457772;260;1181;-40
2022/05/06 02:34:44;;;;;;;;;;;22.20;43.90;;;;;;457673;260;1222;-40
2022/05/06 02:36:45;;;;;;;;;;;22.20;44.00;;;;;;457687;260;1152;-40
2022/05/06 02:38:46;;;;;;;;;;;22.20;44.00;;;;;;457997;260;1258;-40
2022/05/06 02:40:48;;;;;;;;;;;22.20;44.00;;;;;;457853;260;1036;-40
2022/05/06 02:42:49;;;;;;;;;;;22.20;43.90;;;;;;458077;260;1200;-40
2022/05/06 02:44:50;;;;;;;;;;;22.20;44.00;;;;;;457846;260;2143;-40
2022/05/06 02:46:52;;;;;;;;;;;22.20;44.00;;;;;;457549;261;1445;-39
2022/05/06 02:48:53;;;;;;;;;;;22.20;43.90;;;;;;457966;260;1199;-40
2022/05/06 02:50:54;;;;;;;;;;;22.10;43.90;;;;;;458053;260;1118;-40
2022/05/06 02:52:56;;;;;;;;;;;22.20;44.00;;;;;;457808;260;1258;-40
2022/05/06 02:54:57;;;;;;;;;;;22.10;44.00;;;;;;457686;261;1123;-40
2022/05/06 02:57:00;;;;;;;;;;;22.20;43.90;;;;;;458039;260;1412;-40
2022/05/06 02:59:00;;;;;;;;;;;22.20;43.90;;;;;;457954;260;1954;-40
2022/05/06 03:01:01;;;;;;;;;;;22.20;43.90;;;;;;458053;260;1621;-40
2022/05/06 03:03:03;;;;;;;;;;;22.10;43.90;;;;;;457890;260;1198;-40
2022/05/06 03:05:04;;;;;;;;;;;22.10;43.90;;;;;;457700;261;2263;-40
2022/05/06 03:07:07;;;;;;;;;;;22.10;43.90;;;;;;457669;260;1286;-40
2022/05/06 03:09:06;;;;;;;;;;;22.20;44.00;;;;;;457759;260;2516;-40
2022/05/06 03:11:08;;;;;;;;;;;22.10;44.00;;;;;;458052;260;1339;-40
2022/05/06 03:13:09;;;;;;;;;;;22.10;44.00;;;;;;457675;261;1262;-39
2022/05/06 03:15:11;;;;;;;;;;;22.10;44.00;;;;;;458004;260;1067;-40
2022/05/06 03:17:12;;;;;;;;;;;22.10;44.00;;;;;;457566;261;1229;-40
2022/05/06 03:19:13;;;;;;;;;;;22.10;44.00;;;;;;457680;260;1113;-40
2022/05/06 03:21:15;;;;;;;;;;;22.20;44.00;;;;;;457761;260;1255;-40
2022/05/06 03:23:16;;;;;;;;;;;22.20;44.00;;;;;;457667;261;1334;-40
2022/05/06 03:25:17;;;;;;;;;;;22.10;44.00;;;;;;458070;260;2154;-40
2022/05/06 03:29:38;;;;;;;;;;;22.10;44.00;;;;;;458013;260;1113;-40
2022/05/06 03:31:40;;;;;;;;;;;22.10;44.00;;;;;;457826;260;1357;-40
2022/05/06 03:33:41;;;;;;;;;;;22.20;44.00;;;;;;457674;261;1061;-40
2022/05/06 03:35:43;;;;;;;;;;;22.20;43.90;;;;;;457718;260;1542;-40
2022/05/06 03:37:45;;;;;;;;;;;22.20;44.00;;;;;;457709;260;1093;-40
2022/05/06 03:39:46;;;;;;;;;;;22.10;44.00;;;;;;457652;261;1073;-40
2022/05/06 03:41:47;;;;;;;;;;;22.10;44.00;;;;;;457647;260;1535;-40
2022/05/06 03:43:49;;;;;;;;;;;22.10;44.10;;;;;;457791;260;2203;-40
2022/05/06 03:45:50;;;;;;;;;;;22.10;44.10;;;;;;457789;260;1238;-40
2022/05/06 03:47:52;;;;;;;;;;;22.10;44.10;;;;;;457667;260;1248;-40
2022/05/06 03:52:13;;;;;;;;;;;22.20;44.00;;;;;;457556;261;1648;-39
2022/05/06 03:54:15;;;;;;;;;;;22.20;43.90;;;;;;457652;261;1089;-40
2022/05/06 03:56:16;;;;;;;;;;;22.20;44.00;;;;;;457633;260;1387;-39
2022/05/06 03:58:18;;;;;;;;;;;22.20;44.00;;;;;;457999;260;1283;-40
2022/05/06 04:00:19;;;;;;;;;;;22.20;44.00;;;;;;458066;260;1107;-40
2022/05/06 04:02:21;;;;;;;;;;;22.20;44.00;;;;;;457596;260;1404;-40
2022/05/06 04:04:26;;;;;;;;;;;22.20;44.00;;;;;;457898;260;2159;-40
2022/05/06 04:06:23;;;;;;;;;;;22.20;43.90;;;;;;457365;258;2040;-40
2022/05/06 04:08:25;;;;;;;;;;;22.20;44.00;;;;;;457738;260;1123;-40
2022/05/06 04:10:26;;;;;;;;;;;22.20;44.00;;;;;;457958;260;1503;-40
2022/05/06 04:12:28;;;;;;;;;;;22.10;44.00;;;;;;457762;260;1231;-40
2022/05/06 04:14:29;;;;;;;;;;;22.10;44.10;;;;;;457623;261;2043;-40
2022/05/06 04:16:30;;;;;;;;;;;22.20;44.10;;;;;;457631;260;1149;-40
2022/05/06 04:18:31;;;;;;;;;;;22.10;44.00;;;;;;457674;260;1144;-40
2022/05/06 04:25:13;;;;;;;;;;;22.20;44.00;;;;;;457656;260;2138;-40
2022/05/06 04:27:13;;;;;;;;;;;22.20;44.00;;;;;;457356;261;2305;-40
2022/05/06 04:29:14;;;;;;;;;;;22.10;44.00;;;;;;457807;260;1165;-40
2022/05/06 04:31:17;;;;;;;;;;;22.10;44.10;;;;;;457498;261;1223;-40
2022/05/06 04:33:17;;;;;;;;;;;22.10;44.10;;;;;;457460;260;2483;-40
2022/05/06 04:35:19;;;;;;;;;;;22.20;44.10;;;;;;457433;260;1201;-39
2022/05/06 04:37:20;;;;;;;;;;;22.10;44.00;;;;;;457503;260;1372;-40
2022/05/06 04:39:21;;;;;;;;;;;22.10;44.00;;;;;;457709;260;1076;-40
2022/05/06 04:41:22;;;;;;;;;;;22.20;44.00;;;;;;457529;260;1289;-40
2022/05/06 04:43:24;;;;;;;;;;;22.20;44.00;;;;;;457468;261;1183;-40
2022/05/06 04:45:25;;;;;;;;;;;22.10;44.00;;;;;;457470;261;2203;-40
2022/05/06 04:47:26;;;;;;;;;;;22.20;44.10;;;;;;457570;260;1216;-40
2022/05/06 04:49:27;;;;;;;;;;;22.20;44.00;;;;;;457623;260;1222;-40
2022/05/06 04:51:29;;;;;;;;;;;22.20;44.00;;;;;;457455;261;1334;-40
2022/05/06 04:53:30;;;;;;;;;;;22.20;44.00;;;;;;457404;260;1105;-40
2022/05/06 04:55:32;;;;;;;;;;;22.20;44.00;;;;;;457769;260;1125;-40
2022/05/06 04:57:33;;;;;;;;;;;22.20;44.00;;;;;;457633;260;1308;-40
2022/05/06 04:59:34;;;;;;;;;;;22.20;44.00;;;;;;457560;261;1064;-40
2022/05/06 05:01:35;;;;;;;;;;;22.20;43.90;;;;;;457667;260;1132;-40
2022/05/06 05:03:37;;;;;;;;;;;22.20;44.00;;;;;;457460;261;1152;-40
2022/05/06 05:05:38;;;;;;;;;;;22.10;44.00;;;;;;457748;260;2135;-40
2022/05/06 05:07:40;;;;;;;;;;;22.20;44.00;;;;;;457378;260;1331;-40
2022/05/06 05:09:41;;;;;;;;;;;22.20;44.00;;;;;;457421;260;1169;-40
2022/05/06 05:11:43;;;;;;;;;;;22.20;44.00;;;;;;457340;261;1330;-40
2022/05/06 05:13:44;;;;;;;;;;;22.20;44.00;;;;;;457377;261;1203;-40
2022/05/06 05:15:46;;;;;;;;;;;22.20;44.00;;;;;;457350;260;1289;-40
2022/05/06 05:17:47;;;;;;;;;;;22.20;44.00;;;;;;457371;261;1234;-40
2022/05/06 05:19:48;;;;;;;;;;;22.20;44.00;;;;;;457516;260;1255;-40
2022/05/06 05:21:50;;;;;;;;;;;22.10;44.00;;;;;;457440;260;1239;-40
2022/05/06 05:23:51;;;;;;;;;;;22.20;44.10;;;;;;457294;261;1319;-40
2022/05/06 05:25:52;;;;;;;;;;;22.10;44.10;;;;;;457288;257;2202;-40
2022/05/06 05:27:53;;;;;;;;;;;22.10;44.10;;;;;;457299;260;1903;-40
2022/05/06 05:29:55;;;;;;;;;;;22.20;44.10;;;;;;457334;260;1250;-40
2022/05/06 05:31:56;;;;;;;;;;;22.20;44.10;;;;;;457265;260;1230;-40
2022/05/06 05:33:57;;;;;;;;;;;22.20;44.00;;;;;;457235;261;1087;-40
2022/05/06 05:35:59;;;;;;;;;;;22.20;43.90;;;;;;457255;260;1170;-40
2022/05/06 05:38:00;;;;;;;;;;;22.20;44.00;;;;;;457236;260;1143;-40
2022/05/06 05:40:01;;;;;;;;;;;22.20;44.00;;;;;;457349;260;1118;-39
2022/05/06 05:42:03;;;;;;;;;;;22.20;44.00;;;;;;457181;260;1349;-40
2022/05/06 05:48:43;;;;;;;;;;;22.20;44.00;;;;;;457168;260;1310;-40
2022/05/06 05:50:45;;;;;;;;;;;22.20;44.00;;;;;;457114;260;1160;-40
2022/05/06 05:52:46;;;;;;;;;;;22.20;43.90;;;;;;457164;260;1283;-40
2022/05/06 05:54:47;;;;;;;;;;;22.20;43.90;;;;;;457180;261;1130;-40
2022/05/06 05:56:49;;;;;;;;;;;22.10;44.00;;;;;;457207;260;1379;-40
2022/05/06 05:58:51;;;;;;;;;;;22.20;44.00;;;;;;457311;260;1265;-40
2022/05/06 06:00:51;;;;;;;;;;;22.10;44.00;;;;;;457121;260;2419;-40
2022/05/06 06:02:53;;;;;;;;;;;22.10;44.10;;;;;;457151;261;1224;-40
2022/05/06 06:04:55;;;;;;;;;;;22.10;44.10;;;;;;457191;260;2203;-40
2022/05/06 06:06:56;;;;;;;;;;;22.20;44.10;;;;;;457223;260;1305;-40
2022/05/06 06:08:57;;;;;;;;;;;22.20;44.10;;;;;;457044;260;1142;-40
2022/05/06 06:11:01;;;;;;;;;;;22.20;44.00;;;;;;457006;261;1366;-40
2022/05/06 06:13:02;;;;;;;;;;;22.20;44.00;;;;;;457056;260;1392;-40
2022/05/06 06:15:02;;;;;;;;;;;22.20;44.00;;;;;;457209;260;2352;-40
2022/05/06 06:17:03;;;;;;;;;;;22.20;44.00;;;;;;457136;260;2154;-40
2022/05/06 06:19:05;;;;;;;;;;;22.20;44.00;;;;;;457047;260;1138;-40
2022/05/06 06:21:06;;;;;;;;;;;22.20;44.00;;;;;;456875;252;1269;-40
2022/05/06 06:23:08;;;;;;;;;;;22.20;44.10;;;;;;457138;260;1604;-39
2022/05/06 06:25:09;;;;;;;;;;;22.20;44.10;;;;;;457157;260;2194;-40
2022/05/06 06:27:10;;;;;;;;;;;22.30;44.00;;;;;;457147;260;1232;-40
2022/05/06 06:29:12;;;;;;;;;;;22.30;44.00;;;;;;457028;261;1207;-40
2022/05/06 06:31:13;;;;;;;;;;;22.20;44.00;;;;;;457016;257;1255;-40
2022/05/06 06:33:15;;;;;;;;;;;22.30;44.00;;;;;;456922;261;1145;-40
2022/05/06 06:35:16;;;;;;;;;;;22.20;44.10;;;;;;456685;260;1231;-40
2022/05/06 06:37:17;;;;;;;;;;;22.20;44.20;;;;;;457013;261;1317;-40
2022/05/06 06:39:19;;;;;;;;;;;22.20;44.30;;;;;;457044;260;1134;-40
2022/05/06 06:41:20;;;;;;;;;;;22.30;44.20;;;;;;456916;260;1329;-40
2022/05/06 06:43:21;;;;;;;;;;;22.20;44.20;;;;;;456971;261;1261;-40
2022/05/06 06:45:22;;;;;;;;;;;22.20;44.10;;;;;;456964;260;2194;-40
2022/05/06 06:47:24;;;;;;;;;;;22.30;44.10;;;;;;456837;260;1264;-40
2022/05/06 06:49:25;;;;;;;;;;;22.20;44.10;;;;;;456978;260;1169;-40
2022/05/06 06:51:26;;;;;;;;;;;22.30;44.20;;;;;;456986;252;1334;-40
2022/05/06 06:53:28;;;;;;;;;;;22.30;44.10;;;;;;457047;260;1249;-40
2022/05/06 06:55:29;;;;;;;;;;;22.30;44.10;;;;;;457033;260;1223;-40
2022/05/06 06:57:31;;;;;;;;;;;22.30;44.10;;;;;;457111;260;1325;-40
2022/05/06 06:59:33;;;;;;;;;;;22.30;44.10;;;;;;456786;261;1204;-40
2022/05/06 07:01:34;;;;;;;;;;;22.30;44.20;;;;;;456743;260;1119;-40
2022/05/06 07:03:35;;;;;;;;;;;22.30;44.20;;;;;;456740;261;1415;-40
2022/05/06 07:05:37;;;;;;;;;;;22.30;44.20;;;;;;456674;260;2206;-40
2022/05/06 07:12:20;;;;;;;;;;;22.30;44.20;;;;;;443553;260;1298;-40
2022/05/06 07:14:23;;;;;;;;;;;22.30;44.10;;;;;;457565;260;867;-40
2022/05/06 07:16:23;;;;;;;;;;;22.30;44.10;;;;;;457355;260;2088;-40
2022/05/06 07:18:25;;;;;;;;;;;22.30;44.10;;;;;;457012;260;1147;-40
2022/05/06 07:20:26;;;;;;;;;;;22.30;44.10;;;;;;456951;261;1239;-40
2022/05/06 07:22:28;;;;;;;;;;;22.30;44.10;;;;;;456913;261;1387;-40
2022/05/06 07:24:30;;;;;;;;;;;22.30;44.20;;;;;;456970;260;1295;-40
2022/05/06 07:26:31;;;;;;;;;;;22.30;44.20;;;;;;456886;261;2394;-40
2022/05/06 07:28:32;;;;;;;;;;;22.30;44.30;;;;;;457098;260;1329;-40
2022/05/06 07:30:33;;;;;;;;;;;22.30;44.20;;;;;;456850;260;1236;-40
2022/05/06 07:32:36;;;;;;;;;;;22.30;44.30;;;;;;456915;260;1210;-40
2022/05/06 07:34:36;;;;;;;;;;;22.30;44.30;;;;;;456173;261;1856;-40
2022/05/06 07:36:41;;;;;;;;;;;22.30;44.30;;;;;;456864;261;1219;-40
2022/05/06 07:38:41;;;;;;;;;;;22.20;44.30;;;;;;456818;260;2328;-40
2022/05/06 07:40:43;;;;;;;;;;;22.30;44.40;;;;;;456701;260;1269;-40
2022/05/06 07:42:45;;;;;;;;;;;22.30;44.40;;;;;;456680;261;1245;-40
2022/05/06 07:44:45;;;;;;;;;;;22.20;44.40;;;;;;456505;260;2280;-40
2022/05/06 07:46:46;;;;;;;;;;;22.30;44.40;;;;;;456016;260;2202;-40
2022/05/06 07:48:48;;;;;;;;;;;22.30;44.40;;;;;;456517;260;1181;-40
2022/05/06 07:50:49;;;;;;;;;;;22.30;44.40;;;;;;456527;260;1202;-40
2022/05/06 07:52:52;;;;;;;;;;;22.30;44.40;;;;;;456644;260;1297;-40
2022/05/06 07:54:51;;;;;;;;;;;22.30;44.40;;;;;;456744;260;2383;-40
2022/05/06 07:56:53;;;;;;;;;;;22.30;44.40;;;;;;456737;260;1338;-40
2022/05/06 07:58:54;;;;;;;;;;;22.30;44.50;;;;;;456825;260;2442;-40
2022/05/06 08:00:56;;;;;;;;;;;22.30;44.50;;;;;;456757;260;1472;-40
2022/05/06 08:05:16;;;;;;;;;;;22.30;44.50;;;;;;456802;260;2128;-40
2022/05/06 08:07:18;;;;;;;;;;;22.30;44.50;;;;;;456705;260;1350;-40
2022/05/06 08:09:20;;;;;;;;;;;22.30;44.40;;;;;;456563;261;2113;-40
2022/05/06 08:11:20;;;;;;;;;;;22.30;44.40;;;;;;456983;258;1392;-40
2022/05/06 08:13:22;;;;;;;;;;;22.30;44.40;;;;;;456816;260;1184;-40
2022/05/06 08:15:23;;;;;;;;;;;22.40;44.40;;;;;;456855;261;1149;-40
2022/05/06 08:17:24;;;;;;;;;;;22.40;44.40;;;;;;456909;261;1257;-40
2022/05/06 08:19:26;;;;;;;;;;;22.30;44.40;;;;;;457219;261;899;-40
2022/05/06 08:21:27;;;;;;;;;;;22.30;44.50;;;;;;457507;260;1189;-40
2022/05/06 08:23:28;;;;;;;;;;;22.30;44.50;;;;;;456868;261;1169;-40
2022/05/06 08:25:29;;;;;;;;;;;22.30;44.40;;;;;;456750;260;2143;-40
2022/05/06 08:27:31;;;;;;;;;;;22.40;44.40;;;;;;456846;260;1259;-39
2022/05/06 08:29:33;;;;;;;;;;;22.30;44.40;;;;;;456908;260;1309;-40
2022/05/06 08:31:37;;;;;;;;;;;22.40;44.50;;;;;;456834;260;1397;-40
2022/05/06 08:33:35;;;;;;;;;;;22.40;44.50;;;;;;456610;260;2210;-40
2022/05/06 08:35:37;;;;;;;;;;;22.40;44.50;;;;;;456862;260;1360;-40
2022/05/06 08:37:38;;;;;;;;;;;22.30;44.60;;;;;;456692;261;1215;-40
2022/05/06 08:39:39;;;;;;;;;;;22.30;44.60;;;;;;456665;260;1231;-40
2022/05/06 08:41:40;;;;;;;;;;;22.30;44.60;;;;;;456633;260;1322;-40
2022/05/06 08:43:42;;;;;;;;;;;22.30;44.60;;;;;;456633;260;1160;-40
2022/05/06 08:52:43;;;;;;;;;;;22.30;44.60;;;;;;456683;261;1259;-40
2022/05/06 08:54:42;;;;;;;;;;;22.40;44.60;;;;;;456661;260;2226;-40
2022/05/06 08:56:44;;;;;;;;;;;22.30;44.60;;;;;;456745;261;1234;-40
2022/05/06 08:58:45;;;;;;;;;;;22.40;44.60;;;;;;456835;261;1127;-40
2022/05/06 09:00:46;;;;;;;;;;;22.30;44.60;;;;;;456816;257;1409;-40
2022/05/06 09:02:48;;;;;;;;;;;22.40;44.60;;;;;;457619;260;1153;-40
2022/05/06 09:04:49;;;;;;;;;;;22.40;44.60;;;;;;457672;260;884;-40
2022/05/06 09:06:51;;;;;;;;;;;22.40;44.70;;;;;;456791;260;2205;-40
2022/05/06 09:08:52;;;;;;;;;;;22.40;44.70;;;;;;456826;260;1107;-40
2022/05/06 09:10:53;;;;;;;;;;;22.30;44.60;;;;;;456718;261;1336;-40
2022/05/06 09:12:56;;;;;;;;;;;22.30;44.70;;;;;;456844;260;1313;-40
2022/05/06 09:17:16;;;;;;;;;;;22.30;44.80;;;;;;456617;252;1240;-40
2022/05/06 09:19:19;;;;;;;;;;;22.30;44.80;;;;;;456567;261;1184;-40
2022/05/06 09:21:19;;;;;;;;;;;22.30;44.70;;;;;;456474;260;2169;-39
2022/05/06 09:23:21;;;;;;;;;;;22.30;44.70;;;;;;456937;261;1204;-40
2022/05/06 09:25:22;;;;;;;;;;;22.30;44.70;;;;;;457058;260;1249;-40
2022/05/06 09:27:23;;;;;;;;;;;22.40;44.70;;;;;;457067;260;2210;-40
2022/05/06 09:29:25;;;;;;;;;;;22.30;44.70;;;;;;457334;260;1192;-40
2022/05/06 09:31:26;;;;;;;;;;;22.30;44.70;;;;;;456668;261;1294;-40
2022/05/06 09:33:28;;;;;;;;;;;22.30;44.80;;;;;;457402;260;1056;-40
2022/05/06 09:35:30;;;;;;;;;;;22.30;44.80;;;;;;457393;260;2058;-40
2022/05/06 09:37:30;;;;;;;;;;;22.30;44.80;;;;;;456738;261;2342;-40
2022/05/06 09:39:31;;;;;;;;;;;22.30;44.70;;;;;;456728;260;1252;-40
2022/05/06 09:41:33;;;;;;;;;;;22.30;44.90;;;;;;456622;252;1332;-40
2022/05/06 09:43:34;;;;;;;;;;;22.40;44.80;;;;;;456532;261;1205;-40
2022/05/06 09:45:37;;;;;;;;;;;22.40;44.80;;;;;;456457;261;2147;-40
2022/05/06 09:47:37;;;;;;;;;;;22.40;44.80;;;;;;456587;261;2192;-40
2022/05/06 09:49:38;;;;;;;;;;;22.40;44.80;;;;;;456864;261;2466;-40
2022/05/06 09:51:39;;;;;;;;;;;22.40;44.80;;;;;;457030;260;1243;-40
2022/05/06 09:53:40;;;;;;;;;;;22.40;44.80;;;;;;457108;261;1384;-40
2022/05/06 09:55:42;;;;;;;;;;;22.40;44.90;;;;;;457247;260;1279;-40
2022/05/06 09:57:43;;;;;;;;;;;22.40;44.90;;;;;;457071;260;1272;-40
2022/05/06 09:59:45;;;;;;;;;;;22.40;44.80;;;;;;456769;261;1240;-40
2022/05/06 10:01:47;;;;;;;;;;;22.40;44.80;;;;;;457058;260;1413;-40
2022/05/06 10:03:47;;;;;;;;;;;22.40;44.90;;;;;;457068;260;1704;-40
2022/05/06 10:05:49;;;;;;;;;;;22.30;44.90;;;;;;456689;260;2190;-40
2022/05/06 10:07:50;;;;;;;;;;;22.40;45.00;;;;;;456828;261;1288;-40
2022/05/06 10:09:52;;;;;;;;;;;22.40;44.90;;;;;;456844;260;1239;-40
2022/05/06 10:11:53;;;;;;;;;;;22.30;45.00;;;;;;456826;260;1440;-40
2022/05/06 10:13:58;;;;;;;;;;;22.40;45.00;;;;;;456787;261;1247;-40
2022/05/06 10:15:56;;;;;;;;;;;22.40;44.90;;;;;;456644;260;2161;-40
2022/05/06 10:17:57;;;;;;;;;;;22.30;44.90;;;;;;457446;260;1101;-40
2022/05/06 10:19:58;;;;;;;;;;;22.30;44.90;;;;;;457059;261;888;-39
2022/05/06 10:22:00;;;;;;;;;;;22.40;44.90;;;;;;457207;260;1191;-40
2022/05/06 10:24:01;;;;;;;;;;;22.40;45.00;;;;;;456720;261;1235;-39
2022/05/06 10:26:03;;;;;;;;;;;22.40;44.90;;;;;;456744;260;2372;-40
2022/05/06 10:33:03;;;;;;;;;;;22.30;44.90;;;;;;432853;273;1284;-40
2022/05/06 10:35:05;;;;;;;;;;;22.40;45.00;;;;;;434884;260;2303;-40
2022/05/06 10:37:04;;;;;;;;;;;22.40;44.90;;;;;;457415;260;1433;-40
2022/05/06 10:39:06;;;;;;;;;;;22.40;44.90;;;;;;456969;260;1161;-40
2022/05/06 10:41:12;;;;;;;;;;;22.40;45.00;;;;;;456902;260;1529;-40
2022/05/06 10:43:09;;;;;;;;;;;22.40;45.00;;;;;;456891;260;2003;-40
2022/05/06 10:45:10;;;;;;;;;;;22.40;45.00;;;;;;456907;261;1183;-40
2022/05/06 10:47:12;;;;;;;;;;;22.40;45.00;;;;;;456786;261;2194;-40
2022/05/06 10:49:13;;;;;;;;;;;22.40;45.00;;;;;;456795;260;1198;-40
2022/05/06 10:51:14;;;;;;;;;;;22.40;45.00;;;;;;456908;258;1274;-40
2022/05/06 10:53:16;;;;;;;;;;;22.40;45.10;;;;;;457182;260;1218;-40
2022/05/06 10:55:17;;;;;;;;;;;22.40;45.00;;;;;;456967;260;1111;-40
2022/05/06 10:57:18;;;;;;;;;;;22.40;45.00;;;;;;456981;260;1285;-40
2022/05/06 10:59:20;;;;;;;;;;;22.40;45.10;;;;;;456858;260;1481;-40
2022/05/06 11:01:21;;;;;;;;;;;22.40;45.00;;;;;;456770;252;1402;-40
2022/05/06 11:03:23;;;;;;;;;;;22.40;45.00;;;;;;457017;261;1121;-40
2022/05/06 11:05:25;;;;;;;;;;;22.40;45.20;;;;;;456945;260;1403;-40
2022/05/06 11:07:26;;;;;;;;;;;22.40;45.10;;;;;;456823;260;2202;-40
2022/05/06 11:09:27;;;;;;;;;;;22.40;45.10;;;;;;456737;260;1241;-40
2022/05/06 11:11:29;;;;;;;;;;;22.40;45.10;;;;;;456810;260;1319;-40
2022/05/06 11:13:30;;;;;;;;;;;22.40;45.10;;;;;;457532;260;1094;-40
2022/05/06 11:15:31;;;;;;;;;;;22.40;45.10;;;;;;456875;260;1076;-40
2022/05/06 11:17:32;;;;;;;;;;;22.40;45.20;;;;;;456896;261;1227;-40
2022/05/06 11:19:34;;;;;;;;;;;22.40;45.20;;;;;;457044;260;1168;-40
2022/05/06 11:21:35;;;;;;;;;;;22.40;45.20;;;;;;456933;260;1122;-40
2022/05/06 11:23:36;;;;;;;;;;;22.40;45.20;;;;;;456943;261;1114;-40
2022/05/06 11:25:38;;;;;;;;;;;22.40;45.20;;;;;;456901;261;1626;-40
2022/05/06 11:27:39;;;;;;;;;;;22.40;45.30;;;;;;456968;260;2263;-40
2022/05/06 11:29:40;;;;;;;;;;;22.40;45.30;;;;;;457086;260;1314;-40
2022/05/06 11:31:42;;;;;;;;;;;22.40;45.20;;;;;;456869;261;1259;-40
2022/05/06 11:33:43;;;;;;;;;;;22.40;45.20;;;;;;456843;260;1339;-40
2022/05/06 11:35:45;;;;;;;;;;;22.40;45.30;;;;;;456935;260;1305;-40
2022/05/06 11:37:46;;;;;;;;;;;22.40;45.30;;;;;;457541;260;1056;-40
2022/05/06 11:39:48;;;;;;;;;;;22.40;45.20;;;;;;456741;260;1356;-40
2022/05/06 11:41:49;;;;;;;;;;;22.40;45.30;;;;;;457026;261;2376;-40
2022/05/06 11:43:50;;;;;;;;;;;22.40;45.30;;;;;;456877;260;1264;-39
2022/05/06 11:48:10;;;;;;;;;;;22.40;45.50;;;;;;457128;261;2171;-40
2022/05/06 11:50:12;;;;;;;;;;;22.30;45.40;;;;;;456922;261;1210;-40
2022/05/06 11:52:13;;;;;;;;;;;22.40;45.50;;;;;;456737;260;1327;-40
2022/05/06 11:54:14;;;;;;;;;;;22.40;45.40;;;;;;456732;261;1142;-40
2022/05/06 11:56:16;;;;;;;;;;;22.40;45.40;;;;;;456708;260;1347;-40
2022/05/06 11:58:17;;;;;;;;;;;22.40;45.40;;;;;;456921;260;1201;-40
2022/05/06 12:00:18;;;;;;;;;;;22.40;45.40;;;;;;456882;260;1131;-40
2022/05/06 12:02:20;;;;;;;;;;;22.40;45.40;;;;;;456813;260;1278;-40
2022/05/06 12:04:21;;;;;;;;;;;22.40;45.40;;;;;;456869;261;1154;-40
2022/05/06 12:06:22;;;;;;;;;;;22.40;45.50;;;;;;457002;258;1214;-40
2022/05/06 12:08:24;;;;;;;;;;;22.40;45.50;;;;;;456910;260;2143;-40
2022/05/06 12:10:25;;;;;;;;;;;22.40;45.40;;;;;;456939;261;1117;-40
2022/05/06 12:12:26;;;;;;;;;;;22.40;45.40;;;;;;457185;261;1296;-40
2022/05/06 12:14:27;;;;;;;;;;;22.40;45.40;;;;;;457194;261;1450;-40
2022/05/06 12:16:29;;;;;;;;;;;22.40;45.40;;;;;;457273;260;1231;-40
2022/05/06 12:18:30;;;;;;;;;;;22.40;45.40;;;;;;456690;260;1211;-40
2022/05/06 12:20:31;;;;;;;;;;;22.40;45.40;;;;;;456751;260;1311;-40
2022/05/06 12:22:33;;;;;;;;;;;22.40;45.30;;;;;;456720;261;1219;-40
2022/05/06 12:24:34;;;;;;;;;;;22.40;45.30;;;;;;456912;260;1307;-40
2022/05/06 12:26:35;;;;;;;;;;;22.40;45.40;;;;;;456772;261;2199;-40
2022/05/06 12:28:37;;;;;;;;;;;22.40;45.40;;;;;;456897;261;1327;-40
2022/05/06 12:30:38;;;;;;;;;;;22.40;45.40;;;;;;457016;260;1450;-40
2022/05/06 12:32:39;;;;;;;;;;;22.40;45.50;;;;;;456930;260;1158;-40
2022/05/06 12:34:41;;;;;;;;;;;22.40;45.40;;;;;;456943;260;1166;-40
2022/05/06 12:36:42;;;;;;;;;;;22.40;45.40;;;;;;456886;260;1287;-40
2022/05/06 12:38:43;;;;;;;;;;;22.40;45.40;;;;;;456988;260;1233;-40
2022/05/06 12:40:45;;;;;;;;;;;22.40;45.50;;;;;;457072;260;1066;-40